createdAt,value
2023-03-12T00:01:59.666Z,6.77
2023-03-12T00:04:26.873Z,8.83
2023-03-12T00:06:53.604Z,7.03
2023-03-12T00:09:20.014Z,6.60
2023-03-12T00:11:46.394Z,8.97
2023-03-12T00:14:12.752Z,5.77
2023-03-12T00:16:39.170Z,5.00
2023-03-12T00:19:05.550Z,8.23
2023-03-12T00:21:31.958Z,5.73
2023-03-12T00:23:58.365Z,8.57
2023-03-12T00:26:24.844Z,5.07
2023-03-12T00:28:51.615Z,11.17
2023-03-12T00:31:27.844Z,5.27
2023-03-12T00:33:55.991Z,5.67
2023-03-12T00:36:26.150Z,3.63
2023-03-12T00:38:53.642Z,5.50
2023-03-12T00:41:21.314Z,4.87
2023-03-12T00:43:49.045Z,5.23
2023-03-12T00:46:15.683Z,4.20
2023-03-12T00:48:42.377Z,3.70
2023-03-12T00:51:09.456Z,6.83
2023-03-12T00:53:36.568Z,4.97
2023-03-12T00:56:04.287Z,5.57
2023-03-12T00:58:30.898Z,5.17
2023-03-12T01:00:57.340Z,4.50
2023-03-12T01:03:23.912Z,4.30
2023-03-12T01:05:54.652Z,7.33
2023-03-12T01:08:22.404Z,4.73
2023-03-12T01:10:48.861Z,4.23
2023-03-12T01:13:15.488Z,5.77
2023-03-12T01:15:41.844Z,4.57
2023-03-12T01:18:08.265Z,2.97
2023-03-12T01:20:34.783Z,3.60
2023-03-12T01:23:01.245Z,6.13
2023-03-12T01:25:27.773Z,4.97
2023-03-12T01:27:54.125Z,4.80
2023-03-12T01:30:20.484Z,2.57
2023-03-12T01:32:46.942Z,5.73
2023-03-12T01:35:13.510Z,5.37
2023-03-12T01:37:39.957Z,4.13
2023-03-12T01:40:06.654Z,4.57
2023-03-12T01:42:33.003Z,3.27
2023-03-12T01:45:01.784Z,4.57
2023-03-12T01:47:31.766Z,3.30
2023-03-12T01:50:00.924Z,2.63
2023-03-12T01:52:27.223Z,7.43
2023-03-12T01:55:23.171Z,4.93
2023-03-12T01:57:53.722Z,3.00
2023-03-12T02:00:23.380Z,3.90
2023-03-12T02:02:52.155Z,3.30
2023-03-12T02:05:51.267Z,4.57
2023-03-12T02:08:18.521Z,4.20
2023-03-12T02:10:45.731Z,4.83
2023-03-12T02:13:12.619Z,7.10
2023-03-12T02:15:39.868Z,3.27
2023-03-12T02:18:11.381Z,4.80
2023-03-12T02:20:43.766Z,5.13
2023-03-12T02:23:16.420Z,3.83
2023-03-12T02:25:47.627Z,4.27
2023-03-12T02:28:15.924Z,7.50
2023-03-12T02:30:47.081Z,6.33
2023-03-12T02:33:15.295Z,4.90
2023-03-12T02:35:42.272Z,3.47
2023-03-12T02:38:33.785Z,5.20
2023-03-12T02:41:05.214Z,4.30
2023-03-12T02:43:31.632Z,5.77
2023-03-12T02:45:58.024Z,4.30
2023-03-12T02:48:24.390Z,2.90
2023-03-12T02:50:50.788Z,3.67
2023-03-12T02:53:17.194Z,3.80
2023-03-12T02:55:43.557Z,4.17
2023-03-12T02:58:09.910Z,3.47
2023-03-12T03:00:37.667Z,5.00
2023-03-12T03:03:04.054Z,7.60
2023-03-12T03:05:30.412Z,6.57
2023-03-12T03:07:56.914Z,3.13
2023-03-12T03:10:23.313Z,5.07
2023-03-12T03:12:50.069Z,2.30
2023-03-12T03:15:16.729Z,2.63
2023-03-12T03:17:43.338Z,4.63
2023-03-12T03:20:11.853Z,4.63
2023-03-12T03:22:39.145Z,9.73
2023-03-12T03:25:07.360Z,2.73
2023-03-12T03:27:33.855Z,3.87
2023-03-12T03:30:00.342Z,3.60
2023-03-12T03:32:27.286Z,2.93
2023-03-12T03:34:53.803Z,3.47
2023-03-12T03:37:20.214Z,5.40
2023-03-12T03:39:46.643Z,7.97
2023-03-12T03:42:13.022Z,4.07
2023-03-12T03:44:39.454Z,4.10
2023-03-12T03:47:05.996Z,5.50
2023-03-12T03:49:32.385Z,4.13
2023-03-12T03:51:58.735Z,3.13
2023-03-12T03:54:25.150Z,3.90
2023-03-12T03:56:51.498Z,3.00
2023-03-12T03:59:17.924Z,3.90
2023-03-12T04:01:44.312Z,3.30
2023-03-12T04:04:10.713Z,4.87
2023-03-12T04:06:37.189Z,2.43
2023-03-12T04:09:04.175Z,5.50
2023-03-12T04:11:30.596Z,4.73
2023-03-12T04:13:57.555Z,4.97
2023-03-12T04:16:24.698Z,3.63
2023-03-12T04:18:51.118Z,2.60
2023-03-12T04:21:17.680Z,4.40
2023-03-12T04:23:44.176Z,4.67
2023-03-12T04:26:10.840Z,4.10
2023-03-12T04:28:37.757Z,3.97
2023-03-12T04:31:06.941Z,3.00
2023-03-12T04:33:36.462Z,5.57
2023-03-12T04:36:03.835Z,5.23
2023-03-12T04:38:30.860Z,4.13
2023-03-12T04:41:01.808Z,2.47
2023-03-12T04:43:29.576Z,4.40
2023-03-12T04:45:56.148Z,3.87
2023-03-12T04:48:22.726Z,3.70
2023-03-12T04:50:50.286Z,3.63
2023-03-12T04:53:17.137Z,4.07
2023-03-12T04:55:43.538Z,3.80
2023-03-12T04:58:10.039Z,4.40
2023-03-12T05:00:36.624Z,5.77
2023-03-12T05:03:03.110Z,6.00
2023-03-12T05:05:29.519Z,2.90
2023-03-12T05:07:55.892Z,3.67
2023-03-12T05:10:22.327Z,6.87
2023-03-12T05:12:48.739Z,3.80
2023-03-12T05:15:17.723Z,3.47
2023-03-12T05:17:44.520Z,2.47
2023-03-12T05:20:12.181Z,4.00
2023-03-12T05:22:38.988Z,4.93
2023-03-12T05:25:06.095Z,2.90
2023-03-12T05:27:32.831Z,5.53
2023-03-12T05:29:59.234Z,2.10
2023-03-12T05:32:25.806Z,6.37
2023-03-12T05:34:52.238Z,2.47
2023-03-12T05:37:18.725Z,4.00
2023-03-12T05:39:46.670Z,4.17
2023-03-12T05:42:14.511Z,3.33
2023-03-12T05:44:41.758Z,4.70
2023-03-12T05:47:08.586Z,2.40
2023-03-12T05:49:35.109Z,5.27
2023-03-12T05:52:01.529Z,3.33
2023-03-12T05:54:29.126Z,4.10
2023-03-12T05:56:56.307Z,3.67
2023-03-12T05:59:22.815Z,4.80
2023-03-12T06:01:49.281Z,6.43
2023-03-12T06:04:15.661Z,5.00
2023-03-12T06:06:42.333Z,5.20
2023-03-12T06:09:08.667Z,3.57
2023-03-12T06:11:35.410Z,4.57
2023-03-12T06:14:02.061Z,3.20
2023-03-12T06:16:29.652Z,5.77
2023-03-12T06:18:58.811Z,5.83
2023-03-12T06:21:28.627Z,7.40
2023-03-12T06:23:55.419Z,6.03
2023-03-12T06:26:22.673Z,4.17
2023-03-12T06:28:50.582Z,8.00
2023-03-12T06:31:17.997Z,3.73
2023-03-12T06:33:44.497Z,4.60
2023-03-12T06:36:11.639Z,5.40
2023-03-12T06:38:38.832Z,5.77
2023-03-12T06:41:17.388Z,4.17
2023-03-12T06:43:44.911Z,6.27
2023-03-12T06:46:17.033Z,7.33
2023-03-12T06:48:46.110Z,6.10
2023-03-12T06:51:14.574Z,3.50
2023-03-12T06:53:42.616Z,4.33
2023-03-12T06:56:09.928Z,4.30
2023-03-12T06:58:36.308Z,7.70
2023-03-12T07:01:03.645Z,6.23
2023-03-12T07:03:29.999Z,4.70
2023-03-12T07:05:57.856Z,4.77
2023-03-12T07:08:25.407Z,4.53
2023-03-12T07:10:51.752Z,3.80
2023-03-12T07:13:18.174Z,3.90
2023-03-12T07:15:46.413Z,5.17
2023-03-12T07:18:12.861Z,6.10
2023-03-12T07:20:41.722Z,4.23
2023-03-12T07:23:08.798Z,3.93
2023-03-12T07:25:37.535Z,4.33
2023-03-12T07:28:04.428Z,7.03
2023-03-12T07:30:33.306Z,6.73
2023-03-12T07:33:02.155Z,2.80
2023-03-12T07:35:29.696Z,6.37
2023-03-12T07:37:56.210Z,6.50
2023-03-12T07:40:22.933Z,8.50
2023-03-12T07:42:50.991Z,6.33
2023-03-12T07:45:18.584Z,4.93
2023-03-12T07:47:45.919Z,6.63
2023-03-12T07:50:13.273Z,5.77
2023-03-12T07:52:39.728Z,5.40
2023-03-12T07:55:07.144Z,4.87
2023-03-12T07:57:33.759Z,8.00
2023-03-12T08:00:00.209Z,3.73
2023-03-12T08:02:26.700Z,4.60
2023-03-12T08:04:53.092Z,7.10
2023-03-12T08:07:19.575Z,6.63
2023-03-12T08:09:49.427Z,5.23
2023-03-12T08:12:16.252Z,5.63
2023-03-12T08:14:42.725Z,6.13
2023-03-12T08:17:09.138Z,6.57
2023-03-12T08:19:35.560Z,3.23
2023-03-12T08:22:01.873Z,3.80
2023-03-12T08:24:28.287Z,2.97
2023-03-12T08:26:54.767Z,6.03
2023-03-12T08:29:21.075Z,4.27
2023-03-12T08:32:03.454Z,6.43
2023-03-12T08:34:30.767Z,3.90
2023-03-12T08:36:57.327Z,3.60
2023-03-12T08:39:23.664Z,4.73
2023-03-12T08:41:51.626Z,6.97
2023-03-12T08:44:18.094Z,5.63
2023-03-12T08:46:44.474Z,5.57
2023-03-12T08:49:10.775Z,4.73
2023-03-12T08:51:37.225Z,6.37
2023-03-12T08:54:05.240Z,9.53
2023-03-12T08:56:32.100Z,7.40
2023-03-12T08:58:59.444Z,3.97
2023-03-12T09:01:25.826Z,4.60
2023-03-12T09:03:55.060Z,5.70
2023-03-12T09:06:21.475Z,4.53
2023-03-12T09:08:48.009Z,3.43
2023-03-12T09:11:15.007Z,4.77
2023-03-12T09:14:05.109Z,3.77
2023-03-12T09:16:28.642Z,5.23
2023-03-12T09:18:55.024Z,7.00
2023-03-12T09:21:21.499Z,7.50
2023-03-12T09:23:47.884Z,3.93
2023-03-12T09:26:14.623Z,3.87
2023-03-12T09:28:42.412Z,8.13
2023-03-12T09:31:08.860Z,3.83
2023-03-12T09:33:35.895Z,4.20
2023-03-12T09:36:02.979Z,6.40
2023-03-12T09:38:31.779Z,4.27
2023-03-12T09:40:58.843Z,5.67
2023-03-12T09:43:25.289Z,7.90
2023-03-12T09:45:52.327Z,5.67
2023-03-12T09:48:41.903Z,9.50
2023-03-12T09:51:22.012Z,4.53
2023-03-12T09:53:55.970Z,4.33
2023-03-12T09:56:23.374Z,7.43
2023-03-12T09:58:50.723Z,6.13
2023-03-12T10:01:38.805Z,4.43
2023-03-12T10:04:14.433Z,6.73
2023-03-12T10:07:09.820Z,6.80
2023-03-12T10:09:36.181Z,5.13
2023-03-12T10:12:23.946Z,8.57
2023-03-12T10:15:03.550Z,5.13
2023-03-12T10:17:43.704Z,10.13
2023-03-12T10:20:31.861Z,8.00
2023-03-12T10:23:27.989Z,5.03
2023-03-12T10:26:14.703Z,6.37
2023-03-12T10:28:56.219Z,6.83
2023-03-12T10:31:27.996Z,6.50
2023-03-12T10:33:59.986Z,7.67
2023-03-12T10:36:36.534Z,7.07
2023-03-12T10:39:04.619Z,6.43
2023-03-12T10:41:34.606Z,6.37
2023-03-12T10:44:07.598Z,5.03
2023-03-12T10:46:37.032Z,7.03
2023-03-12T10:49:21.815Z,6.27
2023-03-12T10:51:56.044Z,6.93
2023-03-12T10:54:32.946Z,7.83
2023-03-12T10:56:59.836Z,5.90
2023-03-12T10:59:30.409Z,9.37
2023-03-12T11:01:57.865Z,9.70
2023-03-12T11:04:32.313Z,8.00
2023-03-12T11:07:07.811Z,6.50
2023-03-12T11:09:34.599Z,7.60
2023-03-12T11:12:01.018Z,9.27
2023-03-12T11:14:29.952Z,6.67
2023-03-12T11:17:16.838Z,7.60
2023-03-12T11:19:43.254Z,7.80
2023-03-12T11:22:11.599Z,11.63
2023-03-12T11:24:56.626Z,8.70
2023-03-12T11:27:44.481Z,10.03
2023-03-12T11:30:19.339Z,9.60
2023-03-12T11:32:49.006Z,10.10
2023-03-12T11:35:28.768Z,12.50
2023-03-12T11:38:01.334Z,10.93
2023-03-12T11:40:52.093Z,12.80
2023-03-12T11:43:47.534Z,8.80
2023-03-12T11:46:26.845Z,11.50
2023-03-12T11:49:17.684Z,8.70
2023-03-12T11:51:55.340Z,10.53
2023-03-12T11:54:44.963Z,9.03
2023-03-12T11:57:14.272Z,9.50
2023-03-12T11:59:54.776Z,11.77
2023-03-12T12:02:42.416Z,11.07
2023-03-12T12:05:08.711Z,12.77
2023-03-12T12:07:41.220Z,12.67
2023-03-12T12:10:35.455Z,13.27
2023-03-12T12:13:04.788Z,12.60
2023-03-12T12:15:59.224Z,13.60
2023-03-12T12:18:52.869Z,15.10
2023-03-12T12:21:43.061Z,18.10
2023-03-12T12:24:29.575Z,15.17
2023-03-12T12:27:08.273Z,16.20
2023-03-12T12:29:59.063Z,18.23
2023-03-12T12:33:09.212Z,16.50
2023-03-12T12:35:37.991Z,18.50
2023-03-12T12:38:22.974Z,15.20
2023-03-12T12:41:00.361Z,15.50
2023-03-12T12:43:38.017Z,18.07
2023-03-12T12:46:09.719Z,15.43
2023-03-12T12:49:08.391Z,17.40
2023-03-12T12:51:48.844Z,19.63
2023-03-12T12:54:51.861Z,14.00
2023-03-12T12:57:25.163Z,21.83
2023-03-12T13:00:06.228Z,15.87
2023-03-12T13:02:34.454Z,14.10
2023-03-12T13:05:01.216Z,15.20
2023-03-12T13:07:28.179Z,15.80
2023-03-12T13:09:57.692Z,20.70
2023-03-12T13:12:47.518Z,22.63
2023-03-12T13:15:29.334Z,17.37
2023-03-12T13:17:55.752Z,18.70
2023-03-12T13:20:28.778Z,15.80
2023-03-12T13:23:16.390Z,14.87
2023-03-12T13:25:57.078Z,15.83
2023-03-12T13:28:26.418Z,18.90
2023-03-12T13:30:53.862Z,15.17
2023-03-12T13:33:38.802Z,13.90
2023-03-12T13:36:28.146Z,13.37
2023-03-12T13:39:06.802Z,14.10
2023-03-12T13:41:40.310Z,14.87
2023-03-12T13:44:32.963Z,12.57
2023-03-12T13:47:00.913Z,16.80
2023-03-12T13:49:35.508Z,12.33
2023-03-12T13:52:18.895Z,14.37
2023-03-12T13:54:49.192Z,15.23
2023-03-12T13:57:31.536Z,13.33
2023-03-12T13:59:58.973Z,14.33
2023-03-12T14:02:32.117Z,17.43
2023-03-12T14:05:07.668Z,18.40
2023-03-12T14:07:52.963Z,16.57
2023-03-12T14:10:28.418Z,15.47
2023-03-12T14:13:17.952Z,14.53
2023-03-12T14:16:05.606Z,17.87
2023-03-12T14:18:35.623Z,15.67
2023-03-12T14:21:07.161Z,15.70
2023-03-12T14:23:38.316Z,11.03
2023-03-12T14:26:06.685Z,13.60
2023-03-12T14:28:40.651Z,15.17
2023-03-12T14:31:14.954Z,13.00
2023-03-12T14:33:50.041Z,17.17
2023-03-12T14:36:20.379Z,15.77
2023-03-12T14:38:51.685Z,13.10
2023-03-12T14:41:25.665Z,14.40
2023-03-12T14:43:53.950Z,16.03
2023-03-12T14:46:23.106Z,19.97
2023-03-12T14:48:51.696Z,16.60
2023-03-12T14:51:30.506Z,12.17
2023-03-12T14:54:03.304Z,12.77
2023-03-12T14:56:34.733Z,13.17
2023-03-12T14:59:20.329Z,18.00
2023-03-12T15:01:47.790Z,15.93
2023-03-12T15:04:21.147Z,15.73
2023-03-12T15:06:50.831Z,14.90
2023-03-12T15:09:21.975Z,16.90
2023-03-12T15:11:54.818Z,14.70
2023-03-12T15:14:22.729Z,15.03
2023-03-12T15:16:50.729Z,12.33
2023-03-12T15:19:22.840Z,18.63
2023-03-12T15:21:50.489Z,16.27
2023-03-12T15:24:18.073Z,19.10
2023-03-12T15:26:44.552Z,17.80
2023-03-12T15:29:26.151Z,14.13
2023-03-12T15:31:55.671Z,13.07
2023-03-12T15:34:37.032Z,17.63
2023-03-12T15:37:18.924Z,15.83
2023-03-12T15:39:49.918Z,14.67
2023-03-12T15:42:19.763Z,23.70
2023-03-12T15:44:49.515Z,15.37
2023-03-12T15:47:22.600Z,16.10
2023-03-12T15:49:53.401Z,17.27
2023-03-12T15:52:19.718Z,14.67
2023-03-12T15:55:09.941Z,23.30
2023-03-12T15:57:56.772Z,16.90
2023-03-12T16:00:25.156Z,17.67
2023-03-12T16:03:00.584Z,18.10
2023-03-12T16:05:33.295Z,19.37
2023-03-12T16:08:15.808Z,16.83
2023-03-12T16:10:42.334Z,17.00
2023-03-12T16:13:14.163Z,23.10
2023-03-12T16:15:40.952Z,22.07
2023-03-12T16:18:13.140Z,21.83
2023-03-12T16:20:39.690Z,20.00
2023-03-12T16:23:06.073Z,19.70
2023-03-12T16:25:32.956Z,18.57
2023-03-12T16:28:04.864Z,17.03
2023-03-12T16:30:34.471Z,17.17
2023-03-12T16:33:03.083Z,20.33
2023-03-12T16:35:33.531Z,21.23
2023-03-12T16:38:00.983Z,20.33
2023-03-12T16:40:33.830Z,18.53
2023-03-12T16:43:03.515Z,17.03
2023-03-12T16:45:33.271Z,19.13
2023-03-12T16:48:02.990Z,17.80
2023-03-12T16:50:30.173Z,20.90
2023-03-12T16:52:56.945Z,22.90
2023-03-12T16:55:27.439Z,17.13
2023-03-12T16:57:57.888Z,21.83
2023-03-12T17:00:27.442Z,15.63
2023-03-12T17:02:57.804Z,20.17
2023-03-12T17:05:29.857Z,19.90
2023-03-12T17:07:57.449Z,14.33
2023-03-12T17:10:25.173Z,21.27
2023-03-12T17:12:53.256Z,18.97
2023-03-12T17:15:30.461Z,17.73
2023-03-12T17:17:59.019Z,17.70
2023-03-12T17:20:25.829Z,18.67
2023-03-12T17:22:53.135Z,16.30
2023-03-12T17:25:24.399Z,21.97
2023-03-12T17:27:50.945Z,18.70
2023-03-12T17:30:18.870Z,17.57
2023-03-12T17:32:45.230Z,20.07
2023-03-12T17:35:11.936Z,20.97
2023-03-12T17:37:38.346Z,21.53
2023-03-12T17:40:08.226Z,17.57
2023-03-12T17:42:35.965Z,22.90
2023-03-12T17:45:07.177Z,18.33
2023-03-12T17:47:33.613Z,20.70
2023-03-12T17:50:00.129Z,18.10
2023-03-12T17:52:26.710Z,15.77
2023-03-12T17:54:53.302Z,20.00
2023-03-12T17:57:19.719Z,21.53
2023-03-12T17:59:46.160Z,14.90
2023-03-12T18:02:14.290Z,18.27
2023-03-12T18:04:41.007Z,21.67
2023-03-12T18:07:07.749Z,19.27
2023-03-12T18:09:34.274Z,17.90
2023-03-12T18:12:00.993Z,19.20
2023-03-12T18:14:27.666Z,19.67
2023-03-12T18:16:54.039Z,22.90
2023-03-12T18:19:20.499Z,18.20
2023-03-12T18:21:46.904Z,18.60
2023-03-12T18:24:14.699Z,24.00
2023-03-12T18:26:42.156Z,19.27
2023-03-12T18:29:08.553Z,20.07
2023-03-12T18:31:34.972Z,21.67
2023-03-12T18:34:01.487Z,16.37
2023-03-12T18:36:27.936Z,22.70
2023-03-12T18:38:54.370Z,19.20
2023-03-12T18:41:20.827Z,17.30
2023-03-12T18:43:47.241Z,27.27
2023-03-12T18:46:13.746Z,14.43
2023-03-12T18:48:42.936Z,17.37
2023-03-12T18:51:10.554Z,16.50
2023-03-12T18:53:36.901Z,16.33
2023-03-12T18:56:03.520Z,24.07
2023-03-12T18:58:30.254Z,22.50
2023-03-12T19:00:58.007Z,22.63
2023-03-12T19:03:26.703Z,18.00
2023-03-12T19:06:10.781Z,19.17
2023-03-12T19:08:37.979Z,17.27
2023-03-12T19:11:13.329Z,14.63
2023-03-12T19:13:39.723Z,21.13
2023-03-12T19:16:08.938Z,22.40
2023-03-12T19:18:36.694Z,21.43
2023-03-12T19:21:03.483Z,17.57
2023-03-12T19:23:30.018Z,19.70
2023-03-12T19:25:56.428Z,18.13
2023-03-12T19:28:22.971Z,17.37
2023-03-12T19:30:49.540Z,25.10
2023-03-12T19:33:16.019Z,22.70
2023-03-12T19:35:42.978Z,17.20
2023-03-12T19:38:09.454Z,19.40
2023-03-12T19:40:35.904Z,14.47
2023-03-12T19:43:02.708Z,13.70
2023-03-12T19:45:29.311Z,18.50
2023-03-12T19:47:55.807Z,19.67
2023-03-12T19:50:23.838Z,19.03
2023-03-12T19:52:50.183Z,20.07
2023-03-12T19:55:16.644Z,18.50
2023-03-12T19:57:43.141Z,18.03
2023-03-12T20:00:12.074Z,19.93
2023-03-12T20:02:39.325Z,20.40
2023-03-12T20:05:07.142Z,15.77
2023-03-12T20:07:33.632Z,17.00
2023-03-12T20:10:00.311Z,17.37
2023-03-12T20:12:26.701Z,16.43
2023-03-12T20:14:53.305Z,13.17
2023-03-12T20:17:19.787Z,15.57
2023-03-12T20:19:46.222Z,19.97
2023-03-12T20:22:13.009Z,15.57
2023-03-12T20:24:39.534Z,19.33
2023-03-12T20:27:06.005Z,20.70
2023-03-12T20:29:32.485Z,17.03
2023-03-12T20:31:58.911Z,12.37
2023-03-12T20:34:25.594Z,20.27
2023-03-12T20:36:52.096Z,16.20
2023-03-12T20:39:18.558Z,13.83
2023-03-12T20:41:45.011Z,17.50
2023-03-12T20:44:11.508Z,16.93
2023-03-12T20:46:37.920Z,15.13
2023-03-12T20:49:04.398Z,17.47
2023-03-12T20:51:31.018Z,15.47
2023-03-12T20:53:57.702Z,16.63
2023-03-12T20:56:24.078Z,14.87
2023-03-12T20:58:50.562Z,15.13
2023-03-12T21:01:16.972Z,18.73
2023-03-12T21:03:43.372Z,15.60
2023-03-12T21:06:09.821Z,19.77
2023-03-12T21:08:36.246Z,16.47
2023-03-12T21:11:06.465Z,17.37
2023-03-12T21:13:32.859Z,17.50
2023-03-12T21:15:59.559Z,16.07
2023-03-12T21:18:26.146Z,24.90
2023-03-12T21:20:52.638Z,17.20
2023-03-12T21:23:19.000Z,19.27
2023-03-12T21:25:45.670Z,17.47
2023-03-12T21:28:12.179Z,15.37
2023-03-12T21:30:39.054Z,15.43
2023-03-12T21:33:05.770Z,16.30
2023-03-12T21:35:32.292Z,18.80
2023-03-12T21:37:59.066Z,14.50
2023-03-12T21:40:25.606Z,16.43
2023-03-12T21:42:52.143Z,16.00
2023-03-12T21:45:18.798Z,21.83
2023-03-12T21:47:45.282Z,18.07
2023-03-12T21:50:11.808Z,18.57
2023-03-12T21:52:43.700Z,20.20
2023-03-12T21:55:10.839Z,13.80
2023-03-12T21:57:37.796Z,22.10
2023-03-12T22:00:05.960Z,18.70
2023-03-12T22:02:32.468Z,17.93
2023-03-12T22:05:00.408Z,15.33
2023-03-12T22:07:30.111Z,17.13
2023-03-12T22:09:56.604Z,17.27
2023-03-12T22:12:23.491Z,13.63
2023-03-12T22:14:49.942Z,18.77
2023-03-12T22:17:17.200Z,16.63
2023-03-12T22:19:43.783Z,20.40
2023-03-12T22:22:10.214Z,16.97
2023-03-12T22:24:37.443Z,16.93
2023-03-12T22:27:06.474Z,10.17
2023-03-12T22:29:33.815Z,19.00
2023-03-12T22:32:00.151Z,17.77
2023-03-12T22:34:26.603Z,16.30
2023-03-12T22:36:53.110Z,17.30
2023-03-12T22:39:19.965Z,17.50
2023-03-12T22:41:50.770Z,12.27
2023-03-12T22:44:17.396Z,16.13
2023-03-12T22:46:43.946Z,17.33
2023-03-12T22:49:10.676Z,16.63
2023-03-12T22:51:37.392Z,13.03
2023-03-12T22:54:04.436Z,19.30
2023-03-12T22:56:31.023Z,14.00
2023-03-12T22:58:57.445Z,17.27
2023-03-12T23:01:24.829Z,12.73
2023-03-12T23:03:51.936Z,22.67
2023-03-12T23:06:21.526Z,18.80
2023-03-12T23:08:48.651Z,15.53
2023-03-12T23:11:16.632Z,15.93
2023-03-12T23:13:44.947Z,15.93
2023-03-12T23:16:17.146Z,12.53
2023-03-12T23:18:43.754Z,15.17
2023-03-12T23:21:15.620Z,11.40
2023-03-12T23:23:43.520Z,13.10
2023-03-12T23:26:16.538Z,15.10
2023-03-12T23:28:43.184Z,13.37
2023-03-12T23:31:10.533Z,12.53
2023-03-12T23:33:37.776Z,14.53
2023-03-12T23:36:05.871Z,16.80
2023-03-12T23:38:32.774Z,19.83
2023-03-12T23:41:04.447Z,13.87
2023-03-12T23:43:30.910Z,11.93
2023-03-12T23:45:59.329Z,16.03
2023-03-12T23:48:27.223Z,11.70
2023-03-12T23:50:53.999Z,13.40
2023-03-12T23:53:20.769Z,18.00
2023-03-12T23:55:56.183Z,18.17
2023-03-12T23:58:23.548Z,17.50
